Terminal Aerodrome Forecast
Issued by NWS Austin/San Antonio, TX

Home | Current Version | Previous Version | Text Only | Print | Product List | Glossary On
Versions: 1 2 3 4 5 6 7 8 9 10 11 12 13 14 15 16 17 18 19 20 21 22 23 24 25 26 27 28 29 30 31 32 33
000
FTUS44 KEWX 051950 AAA
TAFSAT
TAF AMD
KSAT 051950Z 0520/0624 28005KT P6SM SCT008 OVC015
     FM052200 27004KT P6SM SCT050
     FM060700 24003KT 5SM BR SKC
     FM061300 29006KT P6SM SKC
     FM061700 33010KT P6SM SKC=

USA.gov is the U.S. government's official web portal to all federal, state and local government web resources and services.